createdAt,value
2022-09-03T00:00:03.545Z,66.78
2022-09-03T00:01:03.544Z,66.98
2022-09-03T00:02:03.569Z,67.08
2022-09-03T00:03:03.563Z,66.98
2022-09-03T00:04:03.504Z,66.78
2022-09-03T00:05:03.495Z,66.88
2022-09-03T00:06:03.481Z,66.78
2022-09-03T00:07:03.476Z,66.78
2022-09-03T00:08:03.471Z,66.98
2022-09-03T00:09:03.458Z,66.98
2022-09-03T00:10:03.429Z,66.98
2022-09-03T00:11:03.431Z,66.88
2022-09-03T00:12:03.425Z,66.78
2022-09-03T00:13:03.408Z,66.81
2022-09-03T00:14:03.387Z,66.50
2022-09-03T00:15:03.378Z,66.41
2022-09-03T00:16:03.417Z,66.50
2022-09-03T00:17:03.360Z,66.41
2022-09-03T00:18:03.369Z,66.61
2022-09-03T00:19:03.351Z,66.41
2022-09-03T00:20:03.339Z,66.10
2022-09-03T00:21:03.318Z,66.20
2022-09-03T00:22:03.300Z,66.20
2022-09-03T00:23:03.289Z,66.41
2022-09-03T00:24:03.269Z,66.50
2022-09-03T00:25:03.278Z,66.41
2022-09-03T00:26:03.251Z,66.50
2022-09-03T00:27:03.240Z,66.50
2022-09-03T00:28:03.250Z,66.61
2022-09-03T00:29:03.212Z,66.71
2022-09-03T00:30:03.201Z,66.71
2022-09-03T00:31:03.306Z,66.50
2022-09-03T00:32:03.180Z,66.81
2022-09-03T00:33:03.182Z,66.71
2022-09-03T00:34:03.171Z,66.81
2022-09-03T00:35:03.150Z,66.91
2022-09-03T00:36:03.131Z,66.91
2022-09-03T00:37:03.122Z,67.22
2022-09-03T00:38:03.144Z,67.32
2022-09-03T00:39:03.094Z,67.32
2022-09-03T00:40:03.181Z,67.32
2022-09-03T00:41:03.074Z,67.42
2022-09-03T00:42:03.083Z,67.42
2022-09-03T00:43:03.062Z,67.42
2022-09-03T00:44:03.069Z,67.72
2022-09-03T00:45:03.032Z,67.72
2022-09-03T00:46:03.086Z,67.62
2022-09-03T00:47:03.005Z,67.52
2022-09-03T00:48:03.033Z,67.62
2022-09-03T00:49:02.986Z,67.82
2022-09-03T00:50:02.974Z,67.72
2022-09-03T00:51:02.967Z,67.62
2022-09-03T00:52:02.977Z,67.62
2022-09-03T00:53:02.934Z,67.42
2022-09-03T00:54:02.950Z,67.52
2022-09-03T00:55:02.915Z,67.62
2022-09-03T00:56:02.906Z,67.52
2022-09-03T00:57:02.907Z,67.62
2022-09-03T00:58:02.895Z,67.42
2022-09-03T00:59:02.881Z,67.72
2022-09-03T01:00:02.856Z,67.52
2022-09-03T01:01:02.846Z,67.72
2022-09-03T01:02:02.966Z,67.62
2022-09-03T01:03:02.840Z,67.52
2022-09-03T01:04:02.826Z,67.72
2022-09-03T01:05:02.808Z,68.02
2022-09-03T01:06:02.790Z,68.16
2022-09-03T01:07:02.777Z,68.36
2022-09-03T01:08:02.797Z,68.46
2022-09-03T01:09:02.765Z,68.46
2022-09-03T01:10:02.749Z,68.56
2022-09-03T01:11:02.748Z,68.56
2022-09-03T01:12:02.720Z,68.97
2022-09-03T01:13:02.720Z,69.27
2022-09-03T01:14:02.721Z,69.07
2022-09-03T01:15:02.711Z,68.97
2022-09-03T01:16:02.701Z,69.10
2022-09-03T01:17:02.670Z,69.00
2022-09-03T01:18:02.680Z,69.00
2022-09-03T01:19:02.692Z,69.10
2022-09-03T01:20:02.639Z,69.20
2022-09-03T01:21:02.639Z,69.20
2022-09-03T01:22:02.620Z,69.31
2022-09-03T01:23:02.630Z,69.51
2022-09-03T01:24:02.605Z,69.71
2022-09-03T01:25:02.591Z,69.92
2022-09-03T01:26:02.570Z,70.15
2022-09-03T01:27:02.583Z,69.92
2022-09-03T01:28:02.552Z,69.74
2022-09-03T01:29:02.550Z,69.41
2022-09-03T01:30:02.534Z,69.54
2022-09-03T01:31:02.553Z,69.64
2022-09-03T01:32:02.529Z,69.84
2022-09-03T01:33:02.494Z,69.74
2022-09-03T01:34:02.493Z,69.64
2022-09-03T01:35:02.495Z,69.64
2022-09-03T01:36:02.473Z,70.05
2022-09-03T01:37:02.450Z,70.01
2022-09-03T01:38:02.466Z,69.92
2022-09-03T01:39:02.436Z,69.92
2022-09-03T01:40:02.492Z,69.41
2022-09-03T01:41:02.414Z,69.41
2022-09-03T01:42:02.412Z,69.44
2022-09-03T01:43:02.407Z,69.34
2022-09-03T01:44:02.384Z,69.34
2022-09-03T01:45:02.364Z,69.41
2022-09-03T01:46:02.420Z,69.00
2022-09-03T01:47:02.357Z,68.90
2022-09-03T01:48:02.348Z,69.00
2022-09-03T01:49:02.321Z,68.70
2022-09-03T01:50:02.316Z,68.90
2022-09-03T01:51:02.310Z,68.60
2022-09-03T01:52:02.297Z,68.80
2022-09-03T01:53:02.296Z,68.40
2022-09-03T01:54:02.277Z,68.60
2022-09-03T01:55:02.259Z,68.29
2022-09-03T01:56:02.250Z,68.29
2022-09-03T01:57:02.228Z,67.99
2022-09-03T01:58:02.247Z,68.09
2022-09-03T01:59:02.216Z,67.79
2022-09-03T02:00:02.198Z,67.58
2022-09-03T02:01:02.191Z,67.79
2022-09-03T02:02:02.248Z,67.08
2022-09-03T02:03:02.214Z,66.88
2022-09-03T02:04:02.160Z,66.88
2022-09-03T02:05:02.158Z,66.67
2022-09-03T02:06:02.131Z,66.67
2022-09-03T02:07:02.131Z,66.24
2022-09-03T02:08:02.138Z,65.53
2022-09-03T02:09:02.099Z,65.73
2022-09-03T02:10:02.085Z,65.53
2022-09-03T02:11:02.151Z,64.82
2022-09-03T02:12:02.070Z,64.72
2022-09-03T02:13:02.061Z,64.51
2022-09-03T02:14:02.050Z,64.41
2022-09-03T02:15:02.039Z,64.51
2022-09-03T02:16:02.091Z,64.28
2022-09-03T02:17:02.010Z,64.21
2022-09-03T02:18:02.027Z,64.11
2022-09-03T02:19:01.995Z,64.21
2022-09-03T02:20:01.971Z,64.28
2022-09-03T02:21:01.990Z,64.18
2022-09-03T02:22:01.960Z,63.87
2022-09-03T02:23:01.983Z,63.98
2022-09-03T02:24:01.933Z,64.07
2022-09-03T02:25:01.938Z,64.07
2022-09-03T02:26:01.902Z,63.98
2022-09-03T02:27:01.900Z,63.87
2022-09-03T02:28:01.903Z,63.78
2022-09-03T02:29:01.894Z,63.67
2022-09-03T02:30:01.861Z,63.57
2022-09-03T02:31:01.931Z,63.57
2022-09-03T02:32:01.859Z,63.37
2022-09-03T02:33:01.844Z,63.47
2022-09-03T02:34:01.838Z,63.67
2022-09-03T02:35:01.815Z,63.17
2022-09-03T02:36:01.793Z,63.37
2022-09-03T02:37:01.775Z,63.07
2022-09-03T02:38:01.790Z,62.96
2022-09-03T02:39:01.777Z,62.86
2022-09-03T02:40:01.822Z,62.76
2022-09-03T02:41:01.747Z,62.66
2022-09-03T02:42:01.744Z,63.04
2022-09-03T02:43:01.725Z,62.84
2022-09-03T02:44:01.723Z,62.86
2022-09-03T02:45:01.702Z,63.07
2022-09-03T02:46:01.754Z,63.37
2022-09-03T02:47:01.677Z,62.84
2022-09-03T02:48:01.689Z,62.76
2022-09-03T02:49:01.655Z,62.76
2022-09-03T02:50:01.627Z,63.07
2022-09-03T02:51:01.639Z,63.07
2022-09-03T02:52:02.618Z,63.27
2022-09-03T02:53:01.615Z,63.07
2022-09-03T02:54:01.587Z,63.07
2022-09-03T02:55:01.602Z,63.47
2022-09-03T02:56:01.567Z,63.57
2022-09-03T02:57:01.551Z,63.07
2022-09-03T02:58:01.569Z,63.37
2022-09-03T02:59:01.542Z,63.37
2022-09-03T03:00:01.519Z,63.57
2022-09-03T03:01:01.595Z,63.67
2022-09-03T03:02:01.509Z,63.78
2022-09-03T03:03:01.493Z,63.87
2022-09-03T03:04:01.482Z,63.78
2022-09-03T03:05:01.478Z,63.78
2022-09-03T03:06:01.466Z,63.90
2022-09-03T03:07:01.430Z,64.01
2022-09-03T03:08:01.440Z,63.90
2022-09-03T03:09:01.423Z,63.90
2022-09-03T03:10:01.401Z,63.90
2022-09-03T03:11:01.400Z,64.11
2022-09-03T03:12:01.390Z,64.21
2022-09-03T03:13:01.383Z,64.51
2022-09-03T03:14:01.365Z,64.51
2022-09-03T03:15:01.348Z,64.41
2022-09-03T03:16:01.336Z,64.61
2022-09-03T03:17:01.344Z,64.61
2022-09-03T03:18:01.346Z,64.61
2022-09-03T03:19:01.317Z,64.82
2022-09-03T03:20:01.295Z,65.02
2022-09-03T03:21:01.282Z,65.02
2022-09-03T03:22:01.273Z,65.42
2022-09-03T03:23:01.274Z,65.42
2022-09-03T03:24:01.245Z,65.32
2022-09-03T03:25:01.243Z,65.45
2022-09-03T03:26:01.224Z,65.66
2022-09-03T03:27:01.214Z,65.56
2022-09-03T03:28:01.240Z,65.66
2022-09-03T03:29:01.197Z,66.16
2022-09-03T03:30:01.183Z,65.86
2022-09-03T03:31:01.247Z,65.56
2022-09-03T03:32:01.178Z,65.76
2022-09-03T03:33:01.156Z,65.96
2022-09-03T03:34:01.126Z,65.73
2022-09-03T03:35:01.139Z,65.73
2022-09-03T03:36:01.106Z,65.93
2022-09-03T03:37:01.111Z,65.73
2022-09-03T03:38:01.107Z,66.03
2022-09-03T03:39:01.096Z,66.03
2022-09-03T03:40:01.108Z,65.53
2022-09-03T03:41:01.067Z,65.93
2022-09-03T03:42:01.065Z,65.73
2022-09-03T03:43:01.047Z,65.93
2022-09-03T03:44:01.018Z,66.13
2022-09-03T03:45:01.019Z,65.73
2022-09-03T03:46:01.047Z,65.53
2022-09-03T03:47:01.005Z,65.73
2022-09-03T03:48:01.067Z,65.93
2022-09-03T03:49:00.976Z,65.73
2022-09-03T03:50:00.957Z,65.93
2022-09-03T03:51:00.964Z,66.44
2022-09-03T03:52:00.947Z,66.24
2022-09-03T03:53:00.938Z,66.03
2022-09-03T03:54:04.803Z,66.33
2022-09-03T03:55:00.908Z,67.05
2022-09-03T03:56:00.899Z,66.64
2022-09-03T03:57:00.881Z,66.74
2022-09-03T03:58:00.881Z,66.33
2022-09-03T03:59:00.885Z,67.35
2022-09-03T04:00:00.841Z,67.55
2022-09-03T04:01:00.859Z,67.45
2022-09-03T04:02:00.845Z,67.85
2022-09-03T04:03:00.851Z,67.96
2022-09-03T04:04:00.806Z,67.96
2022-09-03T04:05:00.806Z,66.94
2022-09-03T04:06:00.792Z,67.05
2022-09-03T04:07:00.765Z,67.14
2022-09-03T04:08:00.779Z,67.14
2022-09-03T04:09:00.751Z,67.14
2022-09-03T04:10:00.749Z,66.84
2022-09-03T04:11:00.740Z,66.84
2022-09-03T04:12:00.723Z,66.54
2022-09-03T04:13:00.738Z,66.24
2022-09-03T04:14:00.693Z,66.30
2022-09-03T04:15:00.711Z,65.80
2022-09-03T04:16:00.674Z,66.61
2022-09-03T04:17:00.701Z,66.41
2022-09-03T04:18:00.678Z,66.00
2022-09-03T04:19:00.644Z,65.70
2022-09-03T04:20:00.633Z,65.80
2022-09-03T04:21:00.629Z,65.29
2022-09-03T04:22:00.604Z,65.19
2022-09-03T04:23:00.614Z,64.89
2022-09-03T04:24:00.587Z,65.19
2022-09-03T04:25:00.583Z,64.58
2022-09-03T04:26:00.563Z,64.76
2022-09-03T04:27:00.546Z,64.65
2022-09-03T04:28:00.748Z,64.45
2022-09-03T04:29:00.526Z,64.76
2022-09-03T04:30:00.516Z,64.65
2022-09-03T04:31:00.580Z,64.45
2022-09-03T04:32:00.500Z,64.15
2022-09-03T04:33:00.498Z,64.15
2022-09-03T04:34:00.460Z,64.35
2022-09-03T04:35:00.469Z,64.04
2022-09-03T04:36:00.452Z,63.95
2022-09-03T04:37:00.444Z,64.42
2022-09-03T04:38:00.447Z,64.32
2022-09-03T04:39:00.410Z,64.22
2022-09-03T04:40:00.481Z,64.12
2022-09-03T04:41:00.406Z,63.71
2022-09-03T04:42:00.368Z,64.12
2022-09-03T04:43:00.367Z,64.32
2022-09-03T04:44:00.342Z,64.12
2022-09-03T04:45:00.338Z,63.81
2022-09-03T04:46:00.430Z,63.92
2022-09-03T04:47:00.330Z,64.22
2022-09-03T04:48:00.322Z,63.92
2022-09-03T04:49:00.291Z,63.41
2022-09-03T04:50:00.269Z,63.61
2022-09-03T04:51:00.270Z,63.41
2022-09-03T04:52:00.261Z,63.51
2022-09-03T04:53:03.462Z,64.12
2022-09-03T04:54:01.256Z,63.21
2022-09-03T04:55:00.219Z,63.28
2022-09-03T04:56:00.206Z,63.58
2022-09-03T04:57:00.192Z,63.48
2022-09-03T04:58:00.201Z,62.98
2022-09-03T04:59:00.180Z,62.87
2022-09-03T05:00:00.164Z,63.08
2022-09-03T05:01:00.222Z,63.48
2022-09-03T05:02:00.233Z,62.87
2022-09-03T05:03:00.130Z,63.18
2022-09-03T05:04:00.129Z,63.28
2022-09-03T05:05:00.093Z,63.58
2022-09-03T05:06:00.092Z,63.05
2022-09-03T05:07:00.073Z,63.85
2022-09-03T05:08:00.083Z,63.15
2022-09-03T05:09:00.056Z,62.64
2022-09-03T05:10:00.033Z,62.74
2022-09-03T05:11:00.024Z,63.15
2022-09-03T05:12:00.034Z,63.25
2022-09-03T05:13:00.004Z,63.65
2022-09-03T05:13:59.993Z,62.64
2022-09-03T05:14:59.976Z,62.64
2022-09-03T05:16:00.002Z,62.95
2022-09-03T05:17:00.001Z,62.54
2022-09-03T05:17:59.959Z,63.05
2022-09-03T05:18:59.928Z,62.21
2022-09-03T05:19:59.927Z,62.92
2022-09-03T05:20:59.924Z,62.62
2022-09-03T05:21:59.906Z,62.71
2022-09-03T05:22:59.897Z,62.11
2022-09-03T05:23:59.876Z,62.21
2022-09-03T05:24:59.866Z,63.02
2022-09-03T05:25:59.855Z,62.92
2022-09-03T05:26:59.841Z,62.11
2022-09-03T05:27:59.848Z,62.11
2022-09-03T05:28:59.821Z,61.80
2022-09-03T05:29:59.808Z,62.08
2022-09-03T05:30:59.813Z,62.28
2022-09-03T05:31:59.818Z,62.79
2022-09-03T05:32:59.790Z,62.48
2022-09-03T05:33:59.753Z,62.18
2022-09-03T05:34:59.749Z,62.79
2022-09-03T05:35:59.732Z,62.08
2022-09-03T05:36:59.728Z,62.18
2022-09-03T05:37:59.729Z,62.59
2022-09-03T05:38:59.705Z,61.98
2022-09-03T05:39:59.727Z,62.48
2022-09-03T05:40:59.680Z,62.38
2022-09-03T05:41:59.661Z,62.05
2022-09-03T05:42:59.670Z,62.25
2022-09-03T05:43:59.850Z,62.35
2022-09-03T05:44:59.629Z,62.05
2022-09-03T05:45:59.652Z,61.95
2022-09-03T05:46:59.607Z,61.95
2022-09-03T05:47:59.628Z,61.95
2022-09-03T05:48:59.580Z,62.55
2022-09-03T05:49:59.563Z,61.75
2022-09-03T05:50:59.554Z,61.75
2022-09-03T05:51:59.542Z,61.75
2022-09-03T05:52:59.534Z,61.85
2022-09-03T05:53:59.527Z,62.35
2022-09-03T05:54:59.504Z,62.35
2022-09-03T05:55:59.483Z,61.82
2022-09-03T05:56:59.473Z,61.92
2022-09-03T05:57:59.497Z,61.01
2022-09-03T05:58:59.468Z,62.22
2022-09-03T05:59:59.434Z,61.21
2022-09-03T06:00:59.437Z,61.41
2022-09-03T06:02:00.353Z,61.32
2022-09-03T06:02:59.455Z,61.11
2022-09-03T06:03:59.396Z,60.91
2022-09-03T06:04:59.378Z,60.51
2022-09-03T06:05:59.378Z,60.91
2022-09-03T06:06:59.347Z,60.98
2022-09-03T06:07:59.406Z,60.28
2022-09-03T06:08:59.337Z,60.17
2022-09-03T06:09:59.338Z,60.58
2022-09-03T06:10:59.325Z,60.08
2022-09-03T06:12:00.022Z,60.48
2022-09-03T06:12:59.305Z,59.97
2022-09-03T06:13:59.270Z,60.28
2022-09-03T06:14:59.285Z,59.77
2022-09-03T06:15:59.297Z,59.64
2022-09-03T06:16:59.280Z,60.85
2022-09-03T06:17:59.247Z,59.64
2022-09-03T06:18:59.667Z,60.05
2022-09-03T06:19:59.204Z,59.44
2022-09-03T06:20:59.203Z,59.04
2022-09-03T06:21:59.193Z,59.44
2022-09-03T06:22:59.178Z,59.24
2022-09-03T06:23:59.655Z,59.75
2022-09-03T06:24:59.140Z,59.52
2022-09-03T06:26:04.457Z,59.11
2022-09-03T06:27:00.116Z,59.11
2022-09-03T06:27:59.131Z,59.01
2022-09-03T06:28:59.107Z,58.91
2022-09-03T06:29:59.079Z,59.01
2022-09-03T06:30:59.092Z,58.41
2022-09-03T06:31:59.097Z,58.21
2022-09-03T06:32:59.061Z,58.81
2022-09-03T06:34:03.822Z,58.51
2022-09-03T06:35:00.026Z,57.98
2022-09-03T06:35:59.013Z,57.68
2022-09-03T06:36:58.994Z,57.98
2022-09-03T06:37:59.033Z,58.07
2022-09-03T06:38:58.982Z,58.18
2022-09-03T06:39:59.009Z,57.98
2022-09-03T06:40:58.955Z,57.88
2022-09-03T06:41:58.953Z,58.18
2022-09-03T06:42:58.944Z,57.68
2022-09-03T06:43:58.924Z,57.98
2022-09-03T06:44:58.913Z,58.78
2022-09-03T06:45:58.915Z,57.48
2022-09-03T06:46:58.884Z,57.98
2022-09-03T06:47:58.885Z,57.78
2022-09-03T06:48:58.878Z,57.98
2022-09-03T06:49:58.845Z,57.60
2022-09-03T06:50:58.850Z,57.90
2022-09-03T06:51:58.826Z,57.70
2022-09-03T06:52:58.835Z,58.11
2022-09-03T06:53:58.811Z,58.31
2022-09-03T06:54:58.813Z,58.28
2022-09-03T06:55:58.767Z,58.38
2022-09-03T06:56:58.779Z,58.78
2022-09-03T06:57:58.778Z,58.68
2022-09-03T06:58:58.742Z,59.08
2022-09-03T06:59:58.742Z,59.39
2022-09-03T07:00:59.073Z,58.78
2022-09-03T07:01:58.851Z,58.88
2022-09-03T07:02:58.728Z,58.88
2022-09-03T07:03:58.699Z,58.68
2022-09-03T07:04:58.678Z,58.58
2022-09-03T07:05:58.661Z,58.18
2022-09-03T07:06:58.667Z,58.68
2022-09-03T07:07:58.648Z,59.19
2022-09-03T07:08:58.629Z,58.88
2022-09-03T07:09:58.631Z,58.78
2022-09-03T07:10:58.611Z,58.41
2022-09-03T07:11:58.599Z,58.51
2022-09-03T07:12:58.611Z,58.51
2022-09-03T07:13:58.576Z,59.31
2022-09-03T07:14:58.562Z,59.52
2022-09-03T07:15:58.572Z,60.52
2022-09-03T07:16:58.569Z,62.57
2022-09-03T07:17:58.541Z,66.22
2022-09-03T07:18:58.522Z,68.88
2022-09-03T07:19:58.513Z,71.37
2022-09-03T07:20:58.493Z,73.58
2022-09-03T07:21:58.502Z,76.75
2022-09-03T07:22:58.495Z,76.48
2022-09-03T07:23:58.453Z,78.64
2022-09-03T07:24:58.446Z,79.96
2022-09-03T07:25:58.446Z,80.97
2022-09-03T07:26:58.450Z,82.83
2022-09-03T07:27:58.405Z,82.02
2022-09-03T07:28:58.422Z,82.26
2022-09-03T07:29:58.374Z,82.97
2022-09-03T07:30:58.382Z,84.99
2022-09-03T07:31:58.416Z,85.64
2022-09-03T07:32:58.362Z,84.33
2022-09-03T07:33:58.344Z,85.64
2022-09-03T07:34:58.333Z,88.78
2022-09-03T07:35:58.315Z,88.27
2022-09-03T07:36:58.305Z,87.71
2022-09-03T07:37:58.297Z,87.40
2022-09-03T07:38:58.280Z,87.51
2022-09-03T07:39:58.338Z,88.21
2022-09-03T07:40:58.257Z,89.23
2022-09-03T07:41:58.286Z,90.14
2022-09-03T07:42:58.217Z,89.53
2022-09-03T07:43:58.217Z,90.34
2022-09-03T07:44:58.207Z,89.73
2022-09-03T07:45:58.201Z,88.72
2022-09-03T07:46:58.260Z,89.83
2022-09-03T07:47:58.179Z,89.63
2022-09-03T07:48:58.192Z,89.12
2022-09-03T07:49:58.168Z,89.83
2022-09-03T07:50:58.148Z,90.64
2022-09-03T07:51:58.149Z,90.75
2022-09-03T07:52:58.099Z,89.73
2022-09-03T07:53:58.129Z,90.75
2022-09-03T07:54:58.090Z,89.83
2022-09-03T07:55:58.071Z,90.44
2022-09-03T07:56:58.071Z,91.35
2022-09-03T07:57:58.072Z,91.30
2022-09-03T07:58:58.031Z,90.28
2022-09-03T07:59:58.037Z,90.89
2022-09-03T08:00:58.056Z,91.50
2022-09-03T08:01:58.040Z,90.28
2022-09-03T08:02:58.004Z,90.48
2022-09-03T08:03:58.030Z,90.38
2022-09-03T08:04:57.977Z,91.05
2022-09-03T08:05:57.971Z,90.44
2022-09-03T08:06:58.005Z,90.24
2022-09-03T08:07:57.958Z,90.24
2022-09-03T08:09:00.864Z,90.34
2022-09-03T08:09:58.924Z,90.75
2022-09-03T08:10:57.938Z,91.66
2022-09-03T08:11:57.907Z,92.06
2022-09-03T08:12:57.941Z,91.86
2022-09-03T08:13:57.872Z,91.96
2022-09-03T08:14:57.889Z,93.18
2022-09-03T08:15:57.920Z,93.68
2022-09-03T08:16:57.881Z,93.78
2022-09-03T08:18:03.450Z,93.33
2022-09-03T08:18:58.814Z,93.03
2022-09-03T08:19:57.806Z,93.63
2022-09-03T08:20:57.815Z,93.94
2022-09-03T08:21:57.796Z,94.45
2022-09-03T08:22:57.785Z,94.55
2022-09-03T08:23:57.767Z,94.35
2022-09-03T08:24:57.755Z,94.20
2022-09-03T08:25:57.737Z,94.20
2022-09-03T08:26:57.756Z,94.20
2022-09-03T08:27:57.715Z,94.10
2022-09-03T08:28:57.708Z,93.79
2022-09-03T08:29:57.723Z,93.35
2022-09-03T08:30:57.687Z,92.94
2022-09-03T08:31:59.609Z,92.49
2022-09-03T08:32:57.667Z,93.10
2022-09-03T08:33:57.655Z,93.05
2022-09-03T08:34:57.627Z,92.85
2022-09-03T08:35:57.649Z,92.65
2022-09-03T08:36:57.608Z,92.10
2022-09-03T08:37:57.629Z,92.00
2022-09-03T08:38:57.581Z,91.70
2022-09-03T08:39:57.714Z,91.39
2022-09-03T08:40:57.559Z,90.99
2022-09-03T08:41:57.586Z,90.65
2022-09-03T08:42:57.538Z,90.14
2022-09-03T08:43:57.529Z,90.04
2022-09-03T08:44:58.514Z,89.84
2022-09-03T08:45:57.511Z,89.64
2022-09-03T08:46:57.555Z,89.34
2022-09-03T08:47:57.485Z,88.02
2022-09-03T08:48:57.471Z,87.52
2022-09-03T08:49:57.467Z,88.43
2022-09-03T08:50:57.445Z,87.92
2022-09-03T08:51:57.462Z,88.53
2022-09-03T08:52:57.441Z,88.32
2022-09-03T08:53:57.434Z,88.23
2022-09-03T08:54:57.403Z,88.23
2022-09-03T08:55:57.392Z,88.32
2022-09-03T08:56:57.383Z,88.12
2022-09-03T08:57:57.364Z,88.08
2022-09-03T08:58:57.363Z,87.27
2022-09-03T08:59:57.341Z,87.18
2022-09-03T09:00:57.333Z,86.47
2022-09-03T09:01:57.410Z,86.43
2022-09-03T09:02:57.345Z,85.42
2022-09-03T09:03:57.297Z,84.51
2022-09-03T09:04:57.284Z,82.86
2022-09-03T09:05:57.262Z,83.06
2022-09-03T09:06:57.336Z,82.71
2022-09-03T09:07:57.248Z,82.51
2022-09-03T09:08:57.262Z,80.77
2022-09-03T09:09:57.219Z,82.58
2022-09-03T09:10:57.230Z,82.58
2022-09-03T09:11:57.217Z,79.96
2022-09-03T09:12:57.186Z,81.33
2022-09-03T09:13:57.184Z,81.33
2022-09-03T09:14:57.166Z,79.82
2022-09-03T09:15:57.172Z,78.17
2022-09-03T09:16:57.156Z,78.27
2022-09-03T09:17:57.129Z,79.48
2022-09-03T09:18:57.126Z,78.54
2022-09-03T09:19:57.099Z,77.94
2022-09-03T09:20:57.137Z,79.41
2022-09-03T09:21:57.357Z,79.21
2022-09-03T09:22:57.076Z,77.70
2022-09-03T09:23:57.078Z,79.10
2022-09-03T09:24:57.059Z,79.06
2022-09-03T09:25:57.040Z,79.27
2022-09-03T09:26:57.029Z,77.96
2022-09-03T09:27:57.019Z,78.36
2022-09-03T09:28:57.024Z,75.05
2022-09-03T09:29:56.990Z,76.25
2022-09-03T09:30:57.101Z,73.94
2022-09-03T09:31:56.981Z,76.35
2022-09-03T09:32:56.959Z,76.56
2022-09-03T09:33:56.961Z,76.86
2022-09-03T09:34:56.949Z,75.75
2022-09-03T09:35:56.975Z,76.65
2022-09-03T09:36:56.931Z,75.29
2022-09-03T09:37:56.915Z,75.59
2022-09-03T09:38:56.913Z,74.01
2022-09-03T09:39:56.950Z,75.82
2022-09-03T09:40:56.872Z,74.82
2022-09-03T09:41:56.890Z,75.52
2022-09-03T09:42:56.843Z,76.23
2022-09-03T09:43:56.844Z,76.53
2022-09-03T09:44:56.814Z,74.72
2022-09-03T09:45:56.862Z,74.01
2022-09-03T09:46:56.865Z,75.42
2022-09-03T09:47:56.793Z,73.75
2022-09-03T09:48:56.774Z,73.24
2022-09-03T09:49:56.786Z,73.85
2022-09-03T09:50:56.795Z,73.75
2022-09-03T09:51:56.745Z,74.05
2022-09-03T09:52:59.156Z,76.03
2022-09-03T09:53:56.736Z,74.32
2022-09-03T09:54:56.726Z,74.72
2022-09-03T09:55:56.720Z,74.01
2022-09-03T09:56:56.697Z,73.81
2022-09-03T09:57:56.687Z,71.87
2022-09-03T09:58:56.667Z,73.47
2022-09-03T09:59:56.669Z,72.84
2022-09-03T10:00:56.659Z,73.64
2022-09-03T10:01:56.683Z,73.50
2022-09-03T10:02:56.683Z,71.50
2022-09-03T10:03:56.608Z,72.20
2022-09-03T10:04:56.599Z,70.79
2022-09-03T10:05:56.619Z,71.00
2022-09-03T10:06:56.589Z,70.29
2022-09-03T10:07:56.568Z,69.09
2022-09-03T10:08:56.563Z,69.02
2022-09-03T10:09:56.561Z,70.12
2022-09-03T10:10:56.550Z,71.73
2022-09-03T10:11:57.258Z,71.43
2022-09-03T10:12:56.530Z,70.12
2022-09-03T10:13:56.499Z,71.03
2022-09-03T10:14:56.488Z,71.03
2022-09-03T10:15:56.527Z,71.43
2022-09-03T10:16:56.481Z,71.43
2022-09-03T10:17:56.441Z,70.63
2022-09-03T10:18:56.453Z,71.94
2022-09-03T10:19:56.432Z,72.33
2022-09-03T10:20:56.422Z,72.84
2022-09-03T10:21:56.423Z,73.74
2022-09-03T10:22:57.459Z,73.74
2022-09-03T10:23:56.471Z,74.91
2022-09-03T10:24:56.384Z,73.30
2022-09-03T10:25:56.383Z,73.50
2022-09-03T10:26:56.381Z,73.21
2022-09-03T10:27:56.334Z,73.17
2022-09-03T10:28:56.982Z,72.27
2022-09-03T10:29:56.336Z,72.53
2022-09-03T10:30:56.401Z,73.74
2022-09-03T10:31:56.328Z,71.39
2022-09-03T10:32:56.297Z,70.36
2022-09-03T10:33:56.281Z,71.46
2022-09-03T10:34:56.286Z,71.77
2022-09-03T10:35:56.255Z,70.86
2022-09-03T10:36:56.249Z,70.36
2022-09-03T10:37:56.544Z,68.55
2022-09-03T10:38:56.215Z,68.65
2022-09-03T10:39:56.256Z,69.35
2022-09-03T10:40:56.217Z,69.96
2022-09-03T10:41:56.252Z,69.46
2022-09-03T10:42:56.173Z,68.05
2022-09-03T10:43:56.178Z,68.55
2022-09-03T10:44:56.177Z,68.35
2022-09-03T10:45:56.234Z,69.19
2022-09-03T10:46:56.130Z,67.99
2022-09-03T10:47:56.158Z,68.02
2022-09-03T10:48:56.099Z,68.42
2022-09-03T10:49:56.090Z,70.50
2022-09-03T10:50:56.120Z,70.59
2022-09-03T10:51:56.096Z,71.90
2022-09-03T10:52:56.051Z,72.50
2022-09-03T10:53:56.049Z,72.94
2022-09-03T10:54:56.045Z,73.84
2022-09-03T10:55:56.024Z,75.24
2022-09-03T10:56:56.030Z,76.75
2022-09-03T10:57:56.005Z,76.25
2022-09-03T10:58:55.982Z,75.34
2022-09-03T10:59:55.977Z,74.51
2022-09-03T11:00:56.021Z,74.30
2022-09-03T11:01:56.026Z,74.17
2022-09-03T11:02:55.986Z,72.16
2022-09-03T11:03:55.969Z,72.86
2022-09-03T11:04:55.913Z,72.83
2022-09-03T11:05:55.924Z,73.13
2022-09-03T11:06:55.912Z,72.53
2022-09-03T11:07:55.883Z,70.93
2022-09-03T11:08:55.876Z,69.93
2022-09-03T11:09:55.870Z,69.93
2022-09-03T11:10:55.854Z,70.29
2022-09-03T11:11:55.835Z,70.29
2022-09-03T11:12:55.877Z,70.86
2022-09-03T11:13:55.816Z,71.06
2022-09-03T11:14:55.795Z,69.36
2022-09-03T11:15:55.879Z,69.26
2022-09-03T11:16:55.776Z,70.26
2022-09-03T11:17:55.771Z,68.96
2022-09-03T11:18:55.759Z,68.46
2022-09-03T11:19:55.804Z,69.43
2022-09-03T11:20:55.747Z,68.39
2022-09-03T11:21:55.732Z,66.39
2022-09-03T11:22:55.708Z,65.69
2022-09-03T11:23:55.708Z,66.36
2022-09-03T11:24:55.687Z,66.56
2022-09-03T11:25:55.693Z,64.96
2022-09-03T11:26:55.662Z,65.46
2022-09-03T11:27:56.699Z,65.63
2022-09-03T11:28:55.636Z,64.83
2022-09-03T11:29:55.640Z,66.60
2022-09-03T11:30:55.681Z,65.50
2022-09-03T11:31:55.600Z,63.23
2022-09-03T11:32:55.949Z,65.43
2022-09-03T11:33:55.590Z,64.23
2022-09-03T11:34:55.579Z,64.53
2022-09-03T11:35:55.572Z,63.73
2022-09-03T11:36:55.593Z,64.23
2022-09-03T11:37:55.533Z,64.70
2022-09-03T11:38:55.552Z,63.80
2022-09-03T11:39:56.527Z,63.60
2022-09-03T11:40:55.521Z,63.60
2022-09-03T11:41:55.494Z,62.90
2022-09-03T11:42:55.494Z,64.10
2022-09-03T11:43:55.476Z,64.17
2022-09-03T11:44:55.483Z,63.67
2022-09-03T11:45:55.517Z,64.47
2022-09-03T11:46:55.455Z,63.87
2022-09-03T11:47:55.439Z,63.37
2022-09-03T11:48:55.429Z,62.74
2022-09-03T11:49:55.395Z,63.14
2022-09-03T11:50:55.424Z,64.14
2022-09-03T11:51:55.418Z,63.14
2022-09-03T11:52:55.367Z,64.54
2022-09-03T11:53:55.349Z,62.74
2022-09-03T11:54:55.357Z,62.24
2022-09-03T11:55:55.355Z,63.27
2022-09-03T11:56:55.330Z,62.48
2022-09-03T11:57:55.318Z,63.07
2022-09-03T11:58:55.307Z,62.18
2022-09-03T11:59:55.299Z,62.94
2022-09-03T12:00:55.293Z,63.57
2022-09-03T12:01:55.279Z,62.48
2022-09-03T12:02:58.763Z,63.14
2022-09-03T12:03:55.267Z,62.74
2022-09-03T12:04:55.839Z,62.34
2022-09-03T12:05:55.218Z,62.24
2022-09-03T12:06:55.211Z,62.21
2022-09-03T12:07:55.222Z,62.24
2022-09-03T12:08:55.181Z,61.85
2022-09-03T12:09:55.261Z,61.91
2022-09-03T12:10:55.162Z,61.61
2022-09-03T12:11:55.171Z,62.12
2022-09-03T12:12:55.186Z,62.08
2022-09-03T12:13:55.132Z,62.18
2022-09-03T12:14:55.143Z,61.99
2022-09-03T12:15:55.184Z,61.19
2022-09-03T12:16:55.146Z,61.16
2022-09-03T12:17:55.132Z,60.16
2022-09-03T12:18:55.073Z,60.69
2022-09-03T12:19:55.064Z,62.38
2022-09-03T12:20:55.065Z,61.29
2022-09-03T12:21:55.052Z,62.38
2022-09-03T12:22:55.027Z,61.69
2022-09-03T12:23:58.167Z,61.29
2022-09-03T12:24:55.009Z,61.46
2022-09-03T12:25:55.068Z,61.06
2022-09-03T12:26:54.978Z,60.36
2022-09-03T12:27:54.987Z,60.86
2022-09-03T12:28:54.958Z,61.06
2022-09-03T12:29:54.957Z,60.63
2022-09-03T12:30:55.022Z,61.33
2022-09-03T12:31:54.928Z,60.33
2022-09-03T12:32:54.917Z,59.94
2022-09-03T12:33:54.922Z,59.94
2022-09-03T12:34:54.943Z,59.74
2022-09-03T12:35:58.682Z,59.23
2022-09-03T12:36:54.893Z,59.83
2022-09-03T12:38:13.839Z,58.74
2022-09-03T12:39:12.756Z,60.24
2022-09-03T12:40:11.281Z,60.43
2022-09-03T12:41:55.832Z,60.73
2022-09-03T12:43:37.004Z,60.63
2022-09-03T12:43:56.115Z,61.03
2022-09-03T12:44:54.803Z,60.43
2022-09-03T12:46:10.903Z,59.91
2022-09-03T12:47:33.843Z,60.11
2022-09-03T12:47:55.878Z,59.48
2022-09-03T12:49:55.750Z,58.86
2022-09-03T12:50:56.784Z,59.35
2022-09-03T12:51:58.147Z,57.96
2022-09-03T12:52:55.698Z,57.56
2022-09-03T12:53:54.696Z,58.36